This is the latest recevied weather packets stored in our database for station/object JO1YDG-13. If no packets are shown the sender has not sent any weather packets the latest 10 day(s).
| Time | Temp. | Humidity | Pressure | Rain* | Wind** | Luminosity | Snow |
|---|---|---|---|---|---|---|---|
| 1777608068 | 16.67° C | 88% | 971 hPa | 0.51 mm | - | - | - |
| 1777607767 | 16.11° C | 89% | 971 hPa | 0.76 mm | - | - | - |
| 1777607467 | 16.11° C | 89% | 971.1 hPa | 0.76 mm | - | - | - |
| 1777607167 | 15.56° C | 92% | 971.5 hPa | 1.02 mm | - | - | - |
| 1777606868 | 15° C | 93% | 971.5 hPa | 1.02 mm | - | - | - |
| 1777606568 | 15° C | 93% | 971.6 hPa | 0.76 mm | - | - | - |
| 1777606267 | 15° C | 93% | 971.6 hPa | 0.51 mm | - | - | - |
| 1777605967 | 15° C | 92% | 972.1 hPa | 0.51 mm | - | - | - |
| 1777605667 | 15° C | 92% | 972.1 hPa | 0.76 mm | - | - | - |
| 1777605368 | 15° C | 92% | 972.1 hPa | 1.02 mm | - | - | - |
| 1777605067 | 15.56° C | 92% | 972.7 hPa | 1.02 mm | - | - | - |
| 1777604767 | 15° C | 94% | 972.7 hPa | 1.27 mm | - | - | - |
| 1777604469 | 14.44° C | 94% | 973.2 hPa | 1.78 mm | - | - | - |
| 1777604167 | 14.44° C | 93% | 973.2 hPa | 2.29 mm | - | - | - |
| 1777603867 | 14.44° C | 94% | 973.2 hPa | 2.54 mm | - | - | - |
| 1777603567 | 14.44° C | 93% | 973.5 hPa | 2.29 mm | - | - | - |
| 1777603268 | 14.44° C | 94% | 973.5 hPa | 2.29 mm | - | - | - |
| 1777602967 | 14.44° C | 94% | 973.7 hPa | 2.29 mm | - | - | - |
| 1777602668 | 14.44° C | 94% | 973.7 hPa | 2.54 mm | - | - | - |
| 1777602368 | 14.44° C | 95% | 974.1 hPa | 2.79 mm | - | - | - |
| 1777601767 | 13.89° C | 94% | 974.1 hPa | 2.54 mm | - | - | - |
| 1777586467 | 11.67° C | 99% | 981.3 hPa | 6.35 mm | - | - | - |
| 1777585869 | 11.67° C | 99% | 981.3 hPa | 6.86 mm | - | - | - |
| 1777584968 | 11.67° C | 99% | 982.1 hPa | 7.37 mm | - | - | - |
| 1777584668 | 11.67° C | 99% | 982.1 hPa | 7.37 mm | - | - | - |
* Rain latest hour (hover to see other rain measurements)
** Current wind speed in m/s (hover to see current wind gust speed)